createdAt,value
2019-01-16T00:01:27.456Z,30.30
2019-01-16T00:04:12.264Z,31.47
2019-01-16T00:07:10.359Z,21.77
2019-01-16T00:10:05.364Z,27.53
2019-01-16T00:12:50.586Z,24.00
2019-01-16T00:15:35.298Z,25.93
2019-01-16T00:18:34.174Z,30.23
2019-01-16T00:21:23.443Z,28.47
2019-01-16T00:24:27.783Z,19.93
2019-01-16T00:27:26.297Z,19.33
2019-01-16T00:30:24.989Z,28.67
2019-01-16T00:33:09.055Z,29.13
2019-01-16T00:35:57.271Z,26.93
2019-01-16T00:38:52.730Z,18.00
2019-01-16T00:41:41.037Z,19.40
2019-01-16T00:44:48.522Z,24.10
2019-01-16T00:47:40.518Z,14.00
2019-01-16T00:50:48.052Z,20.07
2019-01-16T00:53:27.675Z,22.53
2019-01-16T00:56:05.780Z,19.67
2019-01-16T00:58:53.065Z,21.07
2019-01-16T01:01:31.975Z,24.50
2019-01-16T01:04:19.198Z,20.23
2019-01-16T01:07:14.703Z,19.10
2019-01-16T01:10:19.208Z,23.50
2019-01-16T01:12:58.780Z,31.13
2019-01-16T01:15:51.036Z,24.03
2019-01-16T01:18:40.823Z,18.07
2019-01-16T01:21:24.547Z,27.30
2019-01-16T01:24:13.838Z,19.63
2019-01-16T01:27:15.187Z,18.67
2019-01-16T01:29:55.519Z,19.50
2019-01-16T01:32:50.299Z,17.50
2019-01-16T01:35:42.347Z,20.47
2019-01-16T01:38:31.656Z,23.60
2019-01-16T01:41:33.926Z,23.53
2019-01-16T01:44:29.231Z,25.27
2019-01-16T01:47:18.430Z,30.60
2019-01-16T01:50:05.701Z,19.03
2019-01-16T01:53:00.910Z,17.83
2019-01-16T01:55:56.211Z,18.03
2019-01-16T01:58:38.657Z,24.07
2019-01-16T02:01:30.912Z,19.97
2019-01-16T02:04:20.099Z,21.50
2019-01-16T02:07:15.294Z,27.30
2019-01-16T02:09:53.549Z,19.33
2019-01-16T02:12:48.895Z,16.43
2019-01-16T02:15:36.933Z,18.53
2019-01-16T02:18:26.179Z,14.97
2019-01-16T02:21:24.529Z,13.63
2019-01-16T02:24:13.948Z,18.03
2019-01-16T02:27:02.648Z,20.23
2019-01-16T02:29:52.710Z,22.83
2019-01-16T02:32:41.886Z,17.83
2019-01-16T02:35:42.942Z,17.80
2019-01-16T02:38:31.497Z,15.23
2019-01-16T02:41:29.856Z,14.63
2019-01-16T02:44:19.049Z,14.03
2019-01-16T02:47:08.421Z,11.77
2019-01-16T02:49:54.874Z,10.87
2019-01-16T02:52:46.001Z,12.50
2019-01-16T02:55:25.882Z,8.80
2019-01-16T02:58:17.825Z,7.63
2019-01-16T03:01:13.141Z,8.77
2019-01-16T03:04:11.471Z,11.07
2019-01-16T03:07:01.006Z,8.63
2019-01-16T03:09:59.072Z,7.13
2019-01-16T03:12:48.387Z,9.27
2019-01-16T03:15:37.834Z,9.27
2019-01-16T03:18:25.607Z,7.93
2019-01-16T03:21:13.963Z,8.70
2019-01-16T03:24:03.277Z,10.60
2019-01-16T03:26:39.564Z,8.27
2019-01-16T03:29:19.714Z,8.13
2019-01-16T03:32:11.157Z,6.10
2019-01-16T03:34:58.991Z,10.40
2019-01-16T03:37:48.253Z,11.70
2019-01-16T03:40:38.159Z,6.93
2019-01-16T03:43:26.142Z,6.10
2019-01-16T03:46:15.439Z,7.70
2019-01-16T03:49:16.336Z,7.13
2019-01-16T03:51:59.483Z,12.07
2019-01-16T03:54:57.699Z,11.27
2019-01-16T03:58:01.930Z,6.87
2019-01-16T04:00:51.098Z,4.47
2019-01-16T04:03:54.002Z,4.30
2019-01-16T04:06:41.847Z,5.90
2019-01-16T04:09:29.431Z,4.20
2019-01-16T04:12:18.739Z,5.80
2019-01-16T04:15:17.159Z,6.53
2019-01-16T04:18:06.965Z,7.63
2019-01-16T04:20:59.275Z,7.83
2019-01-16T04:23:47.054Z,8.83
2019-01-16T04:26:33.731Z,4.97
2019-01-16T04:29:14.839Z,7.03
2019-01-16T04:32:22.048Z,7.77
2019-01-16T04:35:10.241Z,5.00
2019-01-16T04:37:59.513Z,6.03
2019-01-16T04:40:52.342Z,6.20
2019-01-16T04:43:56.984Z,5.90
2019-01-16T04:46:47.273Z,4.93
2019-01-16T04:49:30.200Z,5.97
2019-01-16T04:52:18.819Z,5.67
2019-01-16T04:55:17.234Z,7.90
2019-01-16T04:58:05.392Z,8.33
2019-01-16T05:01:00.866Z,6.80
2019-01-16T05:03:48.866Z,8.83
2019-01-16T05:06:41.047Z,8.53
2019-01-16T05:09:28.828Z,7.57
2019-01-16T05:12:16.674Z,9.30
2019-01-16T05:14:56.612Z,10.57
2019-01-16T05:17:51.793Z,11.00
2019-01-16T05:20:47.109Z,9.97
2019-01-16T05:23:31.252Z,14.33
2019-01-16T05:26:27.739Z,8.57
2019-01-16T05:29:19.807Z,7.67
2019-01-16T05:32:11.947Z,10.43
2019-01-16T05:34:59.596Z,11.67
2019-01-16T05:37:44.459Z,9.97
2019-01-16T05:40:32.541Z,9.10
2019-01-16T05:43:19.216Z,12.00
2019-01-16T05:46:17.292Z,11.00
2019-01-16T05:49:04.912Z,12.33
2019-01-16T05:51:52.467Z,9.60
2019-01-16T05:54:34.912Z,13.47
2019-01-16T05:57:33.171Z,12.63
2019-01-16T06:00:21.978Z,9.67
2019-01-16T06:03:11.872Z,10.03
2019-01-16T06:05:59.495Z,10.90
2019-01-16T06:08:49.863Z,14.50
2019-01-16T06:11:34.017Z,15.30
2019-01-16T06:14:33.066Z,13.67
2019-01-16T06:17:34.293Z,15.30
2019-01-16T06:20:37.877Z,13.93
2019-01-16T06:23:27.065Z,18.33
2019-01-16T06:26:16.266Z,16.83
2019-01-16T06:29:05.387Z,27.43
2019-01-16T06:31:55.330Z,24.17
2019-01-16T06:34:35.116Z,21.50
2019-01-16T06:37:24.466Z,20.47
2019-01-16T06:40:04.449Z,23.77
2019-01-16T06:42:45.364Z,25.53
2019-01-16T06:45:31.833Z,25.70
2019-01-16T06:48:19.718Z,21.90
2019-01-16T06:51:17.686Z,17.13
2019-01-16T06:54:05.346Z,17.77
2019-01-16T06:57:00.483Z,46.73
2019-01-16T06:59:58.488Z,81.63
2019-01-16T07:02:53.663Z,93.73
2019-01-16T07:05:46.050Z,77.40
2019-01-16T07:08:33.844Z,72.70
2019-01-16T07:11:13.009Z,67.13
2019-01-16T07:14:05.037Z,56.07
2019-01-16T07:17:03.094Z,56.07
2019-01-16T07:19:52.489Z,47.00
2019-01-16T07:22:52.090Z,36.00
2019-01-16T07:25:53.325Z,31.40
2019-01-16T07:28:51.774Z,30.37
2019-01-16T07:31:39.117Z,23.33
2019-01-16T07:34:34.022Z,25.83
2019-01-16T07:37:25.994Z,37.97
2019-01-16T07:40:07.021Z,36.93
2019-01-16T07:43:05.323Z,31.23
2019-01-16T07:46:09.506Z,25.37
2019-01-16T07:48:48.874Z,24.57
2019-01-16T07:51:37.954Z,16.47
2019-01-16T07:54:22.313Z,17.10
2019-01-16T07:57:29.567Z,21.50
2019-01-16T08:00:12.998Z,18.93
2019-01-16T08:03:02.299Z,18.20
2019-01-16T08:06:03.758Z,16.87
2019-01-16T08:08:52.263Z,19.87
2019-01-16T08:11:39.686Z,22.47
2019-01-16T08:14:44.002Z,21.43
2019-01-16T08:17:45.081Z,23.80
2019-01-16T08:20:32.803Z,21.87
2019-01-16T08:23:20.162Z,19.30
2019-01-16T08:26:07.847Z,22.83
2019-01-16T08:28:48.380Z,19.60
2019-01-16T08:31:36.218Z,24.77
2019-01-16T08:34:28.153Z,17.33
2019-01-16T08:37:23.093Z,29.07
2019-01-16T08:40:22.828Z,23.83
2019-01-16T08:43:15.068Z,22.63
2019-01-16T08:46:02.815Z,21.13
2019-01-16T08:48:45.410Z,23.63
2019-01-16T08:51:28.830Z,31.77
2019-01-16T08:54:16.421Z,32.03
2019-01-16T08:57:06.015Z,25.90
2019-01-16T08:59:53.602Z,26.70
2019-01-16T09:02:51.661Z,33.77
2019-01-16T09:05:39.582Z,35.63
2019-01-16T09:08:28.738Z,27.03
2019-01-16T09:11:30.679Z,27.97
2019-01-16T09:14:18.454Z,26.93
2019-01-16T09:16:57.383Z,23.43
2019-01-16T09:19:34.405Z,30.13
2019-01-16T09:22:29.629Z,27.03
2019-01-16T09:25:17.250Z,52.40
2019-01-16T09:28:01.422Z,47.13
2019-01-16T09:30:53.363Z,45.63
2019-01-16T09:33:41.105Z,50.37
2019-01-16T09:36:42.002Z,65.77
2019-01-16T09:39:33.914Z,44.83
2019-01-16T09:42:21.653Z,62.20
2019-01-16T09:45:10.782Z,56.20
2019-01-16T09:48:09.158Z,62.63
2019-01-16T09:51:04.280Z,45.33
2019-01-16T09:53:50.969Z,41.77
2019-01-16T09:56:44.599Z,42.73
2019-01-16T09:59:29.102Z,43.03
2019-01-16T10:02:24.134Z,46.63
2019-01-16T10:05:19.184Z,54.70
2019-01-16T10:08:26.569Z,54.57
2019-01-16T10:11:13.870Z,64.33
2019-01-16T10:14:09.826Z,83.60
2019-01-16T10:16:54.194Z,70.60
2019-01-16T10:19:51.604Z,93.90
2019-01-16T10:22:38.050Z,93.17
2019-01-16T10:25:28.951Z,94.70
2019-01-16T10:28:23.842Z,75.33
2019-01-16T10:31:18.923Z,70.73
2019-01-16T10:34:06.878Z,73.67
2019-01-16T10:37:02.027Z,63.67
2019-01-16T10:39:49.618Z,73.87
2019-01-16T10:42:44.697Z,80.00
2019-01-16T10:45:32.287Z,81.63
2019-01-16T10:48:22.166Z,78.00
2019-01-16T10:51:04.479Z,79.80
2019-01-16T10:53:53.673Z,79.50
2019-01-16T10:56:36.700Z,69.97
2019-01-16T10:59:31.358Z,67.80
2019-01-16T11:02:32.749Z,65.00
2019-01-16T11:05:22.001Z,84.70
2019-01-16T11:08:16.866Z,98.30
2019-01-16T11:10:59.505Z,79.07
2019-01-16T11:13:45.729Z,85.77
2019-01-16T11:16:34.927Z,85.23
2019-01-16T11:19:42.185Z,80.43
2019-01-16T11:22:25.141Z,67.77
2019-01-16T11:25:13.080Z,75.90
2019-01-16T11:28:05.351Z,78.77
2019-01-16T11:31:11.961Z,74.03
2019-01-16T11:34:06.722Z,76.03
2019-01-16T11:37:14.250Z,71.90
2019-01-16T11:40:04.838Z,76.63
2019-01-16T11:42:55.270Z,72.83
2019-01-16T11:45:33.355Z,73.20
2019-01-16T11:48:40.721Z,84.40
2019-01-16T11:51:33.756Z,82.30
2019-01-16T11:54:30.735Z,85.60
2019-01-16T11:57:25.119Z,73.17
2019-01-16T12:00:23.312Z,69.03
2019-01-16T12:03:26.233Z,69.67
2019-01-16T12:06:14.528Z,71.17
2019-01-16T12:09:18.694Z,65.50
2019-01-16T12:12:11.225Z,67.03
2019-01-16T12:14:58.139Z,60.33
2019-01-16T12:18:00.077Z,64.53
2019-01-16T12:20:49.186Z,70.43
2019-01-16T12:23:39.474Z,61.70
2019-01-16T12:26:28.785Z,56.53
2019-01-16T12:29:16.866Z,56.63
2019-01-16T12:32:08.829Z,48.30
2019-01-16T12:34:57.957Z,55.13
2019-01-16T12:37:45.493Z,44.73
2019-01-16T12:40:52.749Z,53.73
2019-01-16T12:43:44.647Z,44.80
2019-01-16T12:46:45.821Z,54.47
2019-01-16T12:49:31.602Z,53.93
2019-01-16T12:52:32.974Z,49.10
2019-01-16T12:55:25.730Z,48.03
2019-01-16T12:58:13.573Z,46.77
2019-01-16T13:01:08.962Z,50.47
2019-01-16T13:04:04.335Z,51.43
2019-01-16T13:06:56.084Z,57.43
2019-01-16T13:09:54.389Z,57.63
2019-01-16T13:12:43.530Z,62.53
2019-01-16T13:15:32.662Z,52.97
2019-01-16T13:18:20.131Z,55.47
2019-01-16T13:21:03.817Z,63.33
2019-01-16T13:23:55.674Z,66.03
2019-01-16T13:26:43.163Z,70.97
2019-01-16T13:29:27.857Z,71.60
2019-01-16T13:32:28.949Z,72.93
2019-01-16T13:35:18.267Z,76.67
2019-01-16T13:38:22.628Z,72.53
2019-01-16T13:41:10.578Z,71.40
2019-01-16T13:43:59.693Z,66.50
2019-01-16T13:46:43.323Z,79.20
2019-01-16T13:49:31.044Z,85.43
2019-01-16T13:52:09.813Z,88.47
2019-01-16T13:55:11.317Z,97.93
2019-01-16T13:57:59.070Z,110.70
2019-01-16T14:00:48.479Z,128.63
2019-01-16T14:03:48.858Z,101.40
2019-01-16T14:06:34.322Z,98.87
2019-01-16T14:09:34.615Z,111.23
2019-01-16T14:12:22.611Z,108.00
2019-01-16T14:15:10.677Z,97.77
2019-01-16T14:18:02.569Z,87.77
2019-01-16T14:20:48.486Z,82.00
2019-01-16T14:23:36.190Z,77.47
2019-01-16T14:26:34.706Z,95.83
2019-01-16T14:29:32.957Z,86.10
2019-01-16T14:32:20.727Z,81.93
2019-01-16T14:35:21.927Z,90.03
2019-01-16T14:38:10.715Z,90.67
2019-01-16T14:40:48.637Z,77.00
2019-01-16T14:43:46.387Z,93.77
2019-01-16T14:46:51.202Z,102.30
2019-01-16T14:49:49.457Z,100.30
2019-01-16T14:52:44.590Z,105.73
2019-01-16T14:55:36.514Z,109.93
2019-01-16T14:58:31.257Z,101.77
2019-01-16T15:01:24.046Z,218.03
2019-01-16T15:04:16.194Z,139.63
2019-01-16T15:07:00.093Z,147.47
2019-01-16T15:09:49.092Z,135.83
2019-01-16T15:12:56.330Z,143.40
2019-01-16T15:15:51.410Z,137.17
2019-01-16T15:18:45.682Z,148.27
2019-01-16T15:21:53.998Z,147.83
2019-01-16T15:24:55.010Z,207.63
2019-01-16T15:27:41.423Z,184.13
2019-01-16T15:30:35.641Z,178.27
2019-01-16T15:33:24.958Z,179.47
2019-01-16T15:36:13.834Z,179.60
2019-01-16T15:39:05.858Z,165.90
2019-01-16T15:41:54.989Z,151.70
2019-01-16T15:44:44.090Z,144.83
2019-01-16T15:47:51.806Z,150.57
2019-01-16T15:50:39.695Z,149.97
2019-01-16T15:53:19.361Z,185.47
2019-01-16T15:56:07.683Z,169.73
2019-01-16T15:59:00.525Z,153.27
2019-01-16T16:01:48.239Z,167.63
2019-01-16T16:04:26.909Z,142.70
2019-01-16T16:07:16.543Z,151.20
2019-01-16T16:10:04.041Z,145.63
2019-01-16T16:13:11.316Z,141.93
2019-01-16T16:15:50.856Z,139.07
2019-01-16T16:18:48.883Z,154.80
2019-01-16T16:21:46.871Z,147.07
2019-01-16T16:24:39.314Z,149.53
2019-01-16T16:27:21.866Z,164.77
2019-01-16T16:30:23.441Z,177.87
2019-01-16T16:33:11.945Z,163.80
2019-01-16T16:36:00.010Z,152.30
2019-01-16T16:38:48.126Z,139.50
2019-01-16T16:41:36.155Z,140.53
2019-01-16T16:44:40.776Z,154.43
2019-01-16T16:47:45.639Z,169.70
2019-01-16T16:50:29.265Z,202.90
2019-01-16T16:53:18.549Z,155.87
2019-01-16T16:56:06.557Z,135.60
2019-01-16T16:58:54.609Z,152.10
2019-01-16T17:01:46.596Z,150.37
2019-01-16T17:04:34.473Z,138.80
2019-01-16T17:07:29.865Z,125.57
2019-01-16T17:10:31.149Z,131.70
2019-01-16T17:13:12.270Z,123.23
2019-01-16T17:16:13.475Z,117.10
2019-01-16T17:19:13.812Z,112.03
2019-01-16T17:22:03.099Z,117.07
2019-01-16T17:24:50.850Z,116.80
2019-01-16T17:27:43.879Z,169.53
2019-01-16T17:30:32.030Z,140.93
2019-01-16T17:33:28.509Z,125.10
2019-01-16T17:36:06.938Z,127.53
2019-01-16T17:38:51.773Z,127.87
2019-01-16T17:41:29.258Z,117.80
2019-01-16T17:44:30.688Z,114.17
2019-01-16T17:47:25.775Z,115.00
2019-01-16T17:50:13.809Z,119.87
2019-01-16T17:53:00.263Z,116.30
2019-01-16T17:55:40.505Z,111.70
2019-01-16T17:58:35.498Z,121.97
2019-01-16T18:01:23.821Z,111.00
2019-01-16T18:04:14.189Z,137.03
2019-01-16T18:07:16.515Z,143.93
2019-01-16T18:10:10.567Z,122.97
2019-01-16T18:13:05.481Z,141.17
2019-01-16T18:16:03.865Z,131.23
2019-01-16T18:19:04.830Z,134.73
2019-01-16T18:21:56.559Z,138.70
2019-01-16T18:24:48.581Z,127.73
2019-01-16T18:27:38.748Z,115.77
2019-01-16T18:30:43.795Z,121.33
2019-01-16T18:33:39.009Z,136.63
2019-01-16T18:36:43.178Z,132.30
2019-01-16T18:39:29.426Z,129.63
2019-01-16T18:42:36.922Z,129.53
2019-01-16T18:45:26.721Z,151.97
2019-01-16T18:48:14.477Z,155.00
2019-01-16T18:51:02.148Z,156.17
2019-01-16T18:53:49.623Z,153.77
2019-01-16T18:56:38.754Z,143.37
2019-01-16T18:59:30.946Z,123.07
2019-01-16T19:02:20.102Z,121.00
2019-01-16T19:05:08.234Z,119.23
2019-01-16T19:07:55.996Z,118.27
2019-01-16T19:10:48.018Z,116.83
2019-01-16T19:13:38.776Z,117.43
2019-01-16T19:16:43.165Z,131.83
2019-01-16T19:19:30.845Z,124.60
2019-01-16T19:22:25.677Z,110.93
2019-01-16T19:25:17.729Z,120.43
2019-01-16T19:27:59.308Z,106.80
2019-01-16T19:30:48.857Z,115.67
2019-01-16T19:33:30.173Z,114.17
2019-01-16T19:36:09.645Z,104.93
2019-01-16T19:38:58.869Z,106.47
2019-01-16T19:42:00.807Z,100.80
2019-01-16T19:44:56.152Z,102.50
2019-01-16T19:47:44.899Z,95.07
2019-01-16T19:50:34.333Z,109.03
2019-01-16T19:53:22.310Z,101.80
2019-01-16T19:56:09.834Z,106.67
2019-01-16T19:59:04.137Z,102.93
2019-01-16T20:01:54.450Z,100.40
2019-01-16T20:04:52.985Z,102.40
2019-01-16T20:07:33.370Z,104.97
2019-01-16T20:10:22.046Z,94.13
2019-01-16T20:13:13.071Z,106.20
2019-01-16T20:16:00.201Z,102.70
2019-01-16T20:18:49.475Z,99.07
2019-01-16T20:21:32.458Z,91.93
2019-01-16T20:24:33.588Z,100.07
2019-01-16T20:27:21.584Z,94.77
2019-01-16T20:30:23.059Z,92.47
2019-01-16T20:33:13.365Z,102.20
2019-01-16T20:36:04.438Z,95.50
2019-01-16T20:38:54.589Z,95.10
2019-01-16T20:41:42.892Z,100.50
2019-01-16T20:44:32.021Z,95.63
2019-01-16T20:47:20.241Z,104.53
2019-01-16T20:50:06.877Z,101.50
2019-01-16T20:52:59.093Z,99.73
2019-01-16T20:55:57.778Z,102.87
2019-01-16T20:58:47.375Z,91.33
2019-01-16T21:01:42.583Z,102.27
2019-01-16T21:04:21.463Z,104.00
2019-01-16T21:06:59.525Z,102.77
2019-01-16T21:09:52.362Z,98.90
2019-01-16T21:12:57.056Z,98.80
2019-01-16T21:15:38.310Z,98.50
2019-01-16T21:18:33.411Z,99.90
2019-01-16T21:21:18.941Z,98.30
2019-01-16T21:24:03.662Z,99.57
2019-01-16T21:26:46.151Z,94.47
2019-01-16T21:29:43.739Z,91.03
2019-01-16T21:32:35.714Z,89.33
2019-01-16T21:35:24.493Z,89.20
2019-01-16T21:38:07.530Z,91.70
2019-01-16T21:41:08.793Z,95.70
2019-01-16T21:44:10.086Z,99.30
2019-01-16T21:47:17.549Z,96.67
2019-01-16T21:50:17.247Z,91.67
2019-01-16T21:53:15.850Z,94.90
2019-01-16T21:56:17.201Z,91.17
2019-01-16T21:59:09.407Z,90.37
2019-01-16T22:01:57.229Z,92.33
2019-01-16T22:04:46.510Z,83.97
2019-01-16T22:07:41.514Z,83.23
2019-01-16T22:10:36.480Z,79.83
2019-01-16T22:13:31.678Z,76.03
2019-01-16T22:16:35.946Z,81.87
2019-01-16T22:19:23.907Z,85.00
2019-01-16T22:22:12.398Z,89.07
2019-01-16T22:25:00.018Z,88.67
2019-01-16T22:27:46.202Z,74.63
2019-01-16T22:30:41.977Z,74.43
2019-01-16T22:33:25.995Z,74.80
2019-01-16T22:36:18.206Z,69.80
2019-01-16T22:39:28.384Z,75.70
2019-01-16T22:42:16.426Z,70.47
2019-01-16T22:44:54.257Z,68.37
2019-01-16T22:47:58.607Z,69.47
2019-01-16T22:50:46.583Z,68.80
2019-01-16T22:53:34.410Z,64.17
2019-01-16T22:56:35.984Z,61.90
2019-01-16T22:59:25.130Z,64.97
2019-01-16T23:02:14.163Z,59.20
2019-01-16T23:05:03.254Z,59.67
2019-01-16T23:07:50.921Z,58.80
2019-01-16T23:10:43.111Z,56.50
2019-01-16T23:13:31.162Z,53.43
2019-01-16T23:16:19.270Z,54.83
2019-01-16T23:19:07.073Z,53.93
2019-01-16T23:22:11.673Z,55.17
2019-01-16T23:25:18.995Z,56.53
2019-01-16T23:28:14.230Z,53.53
2019-01-16T23:31:15.304Z,51.80
2019-01-16T23:34:13.316Z,49.73
2019-01-16T23:36:56.309Z,50.80
2019-01-16T23:39:46.767Z,49.13
2019-01-16T23:42:54.310Z,50.87
2019-01-16T23:45:46.247Z,46.60
2019-01-16T23:48:34.237Z,47.23
2019-01-16T23:51:33.306Z,45.50
2019-01-16T23:54:28.395Z,46.53
2019-01-16T23:57:15.725Z,46.57
